createdAt,value
2019-04-29T00:00:04.417Z,100.00
2019-04-29T00:02:36.894Z,100.00
2019-04-29T00:05:26.769Z,100.00
2019-04-29T00:07:57.363Z,99.96
2019-04-29T00:10:28.313Z,100.00
2019-04-29T00:12:59.246Z,99.93
2019-04-29T00:15:49.013Z,99.95
2019-04-29T00:18:28.092Z,99.93
2019-04-29T00:20:59.427Z,99.85
2019-04-29T00:23:30.232Z,99.90
2019-04-29T00:26:01.063Z,99.85
2019-04-29T00:28:31.952Z,99.99
2019-04-29T00:31:02.816Z,99.89
2019-04-29T00:33:33.859Z,99.65
2019-04-29T00:36:04.963Z,99.48
2019-04-29T00:38:54.603Z,99.38
2019-04-29T00:41:42.045Z,99.38
2019-04-29T00:44:14.748Z,99.47
2019-04-29T00:46:46.038Z,99.42
2019-04-29T00:49:16.884Z,99.35
2019-04-29T00:51:47.699Z,99.26
2019-04-29T00:54:31.758Z,99.16
2019-04-29T00:57:02.772Z,99.33
2019-04-29T00:59:33.763Z,99.49
2019-04-29T01:02:05.340Z,99.47
2019-04-29T01:04:36.088Z,99.50
2019-04-29T01:07:07.119Z,99.67
2019-04-29T01:09:38.234Z,99.87
2019-04-29T01:12:09.243Z,100.00
2019-04-29T01:14:40.346Z,100.00
2019-04-29T01:17:11.747Z,100.00
2019-04-29T01:19:42.571Z,100.00
2019-04-29T01:22:13.382Z,100.00
2019-04-29T01:24:44.107Z,100.00
2019-04-29T01:27:35.302Z,100.00
2019-04-29T01:30:07.622Z,100.00
2019-04-29T01:32:38.655Z,100.00
2019-04-29T01:35:09.448Z,100.00
2019-04-29T01:37:42.459Z,100.00
2019-04-29T01:40:29.273Z,100.00
2019-04-29T01:43:00.093Z,100.00
2019-04-29T01:45:30.978Z,100.00
2019-04-29T01:48:01.699Z,100.00
2019-04-29T01:50:32.828Z,100.00
2019-04-29T01:53:03.942Z,100.00
2019-04-29T01:55:35.382Z,100.00
2019-04-29T01:58:06.199Z,100.00
2019-04-29T02:00:37.106Z,100.00
2019-04-29T02:03:07.963Z,100.00
2019-04-29T02:05:38.672Z,100.00
2019-04-29T02:08:09.474Z,100.00
2019-04-29T02:10:40.363Z,100.00
2019-04-29T02:13:11.212Z,100.00
2019-04-29T02:15:41.970Z,100.00
2019-04-29T02:18:12.670Z,100.00
2019-04-29T02:20:43.628Z,100.00
2019-04-29T02:23:19.896Z,100.00
2019-04-29T02:25:50.671Z,100.00
2019-04-29T02:28:21.524Z,100.00
2019-04-29T02:30:53.890Z,100.00
2019-04-29T02:33:25.419Z,100.00
2019-04-29T02:35:57.449Z,100.00
2019-04-29T02:38:46.872Z,100.00
2019-04-29T02:41:36.648Z,100.00
2019-04-29T02:44:09.857Z,100.00
2019-04-29T02:46:40.793Z,100.00
2019-04-29T02:49:11.778Z,100.00
2019-04-29T02:51:53.669Z,100.00
2019-04-29T02:54:25.674Z,100.00
2019-04-29T02:57:05.054Z,100.00
2019-04-29T02:59:40.575Z,100.00
2019-04-29T03:02:28.873Z,100.00
2019-04-29T03:05:17.333Z,100.00
2019-04-29T03:07:48.189Z,100.00
2019-04-29T03:10:19.028Z,100.00
2019-04-29T03:12:49.785Z,100.00
2019-04-29T03:15:32.573Z,100.00
2019-04-29T03:18:03.874Z,100.00
2019-04-29T03:20:40.692Z,100.00
2019-04-29T03:23:13.924Z,100.00
2019-04-29T03:25:44.737Z,100.00
2019-04-29T03:28:15.609Z,100.00
2019-04-29T03:30:46.420Z,100.00
2019-04-29T03:33:17.253Z,100.00
2019-04-29T03:35:48.114Z,100.00
2019-04-29T03:38:18.993Z,100.00
2019-04-29T03:40:49.834Z,100.00
2019-04-29T03:43:21.509Z,100.00
2019-04-29T03:45:52.153Z,100.00
2019-04-29T03:48:23.939Z,100.00
2019-04-29T03:50:55.453Z,100.00
2019-04-29T03:53:28.400Z,100.00
2019-04-29T03:55:58.595Z,100.00
2019-04-29T03:58:30.265Z,100.00
2019-04-29T04:01:09.155Z,100.00
2019-04-29T04:03:44.263Z,100.00
2019-04-29T04:06:26.205Z,100.00
2019-04-29T04:09:05.926Z,100.00
2019-04-29T04:11:32.931Z,100.00
2019-04-29T04:14:03.887Z,100.00
2019-04-29T04:16:53.540Z,100.00
2019-04-29T04:19:25.981Z,100.00
2019-04-29T04:21:56.904Z,100.00
2019-04-29T04:24:28.159Z,100.00
2019-04-29T04:26:59.254Z,100.00
2019-04-29T04:29:30.705Z,100.00
2019-04-29T04:32:01.573Z,100.00
2019-04-29T04:34:32.424Z,100.00
2019-04-29T04:37:03.521Z,100.00
2019-04-29T04:39:36.017Z,100.00
2019-04-29T04:42:07.286Z,100.00
2019-04-29T04:44:56.920Z,100.00
2019-04-29T04:47:27.767Z,100.00
2019-04-29T04:49:58.633Z,100.00
2019-04-29T04:52:29.594Z,100.00
2019-04-29T04:55:00.388Z,100.00
2019-04-29T04:57:31.287Z,100.00
2019-04-29T05:00:02.168Z,100.00
2019-04-29T05:02:33.268Z,100.00
2019-04-29T05:05:04.584Z,100.00
2019-04-29T05:07:35.563Z,100.00
2019-04-29T05:10:07.702Z,100.00
2019-04-29T05:12:38.666Z,100.00
2019-04-29T05:15:09.674Z,100.00
2019-04-29T05:17:40.803Z,100.00
2019-04-29T05:20:12.907Z,100.00
2019-04-29T05:22:59.655Z,100.00
2019-04-29T05:25:33.859Z,100.00
2019-04-29T05:28:05.103Z,100.00
2019-04-29T05:30:35.863Z,100.00
2019-04-29T05:33:06.720Z,100.00
2019-04-29T05:35:50.982Z,100.00
2019-04-29T05:38:35.783Z,100.00
2019-04-29T05:41:06.698Z,100.00
2019-04-29T05:43:49.482Z,100.00
2019-04-29T05:46:27.139Z,100.00
2019-04-29T05:48:58.054Z,100.00
2019-04-29T05:51:47.873Z,100.00
2019-04-29T05:54:19.118Z,100.00
2019-04-29T05:56:49.789Z,100.00
2019-04-29T05:59:20.826Z,100.00
2019-04-29T06:01:51.673Z,100.00
2019-04-29T06:04:22.307Z,100.00
2019-04-29T06:06:53.058Z,100.00
2019-04-29T06:09:23.782Z,100.00
2019-04-29T06:11:54.758Z,100.00
2019-04-29T06:14:25.642Z,100.00
2019-04-29T06:16:57.491Z,100.00
2019-04-29T06:19:28.949Z,100.00
2019-04-29T06:21:59.744Z,100.00
2019-04-29T06:24:30.588Z,100.00
2019-04-29T06:27:04.513Z,100.00
2019-04-29T06:29:35.413Z,100.00
2019-04-29T06:32:06.288Z,100.00
2019-04-29T06:34:40.047Z,100.00
2019-04-29T06:37:09.911Z,100.00
2019-04-29T06:39:40.660Z,100.00
2019-04-29T06:42:15.507Z,100.00
2019-04-29T06:44:44.444Z,100.00
2019-04-29T06:47:17.072Z,100.00
2019-04-29T06:49:48.279Z,100.00
2019-04-29T06:52:19.168Z,100.00
2019-04-29T06:54:50.068Z,100.00
2019-04-29T06:57:20.884Z,100.00
2019-04-29T06:59:54.942Z,100.00
2019-04-29T07:02:25.887Z,100.00
2019-04-29T07:04:56.738Z,100.00
2019-04-29T07:07:27.533Z,100.00
2019-04-29T07:09:58.333Z,100.00
2019-04-29T07:12:29.195Z,100.00
2019-04-29T07:15:00.149Z,100.00
2019-04-29T07:17:30.873Z,100.00
2019-04-29T07:20:03.176Z,100.00
2019-04-29T07:22:34.220Z,100.00
2019-04-29T07:25:05.080Z,100.00
2019-04-29T07:27:43.133Z,100.00
2019-04-29T07:30:09.188Z,100.00
2019-04-29T07:32:42.284Z,100.00
2019-04-29T07:35:12.904Z,100.00
2019-04-29T07:37:43.761Z,100.00
2019-04-29T07:40:15.053Z,100.00
2019-04-29T07:42:45.784Z,100.00
2019-04-29T07:45:28.182Z,100.00
2019-04-29T07:48:01.791Z,100.00
2019-04-29T07:50:30.543Z,100.00
2019-04-29T07:53:01.483Z,100.00
2019-04-29T07:55:32.571Z,100.00
2019-04-29T07:58:03.517Z,100.00
2019-04-29T08:00:36.047Z,100.00
2019-04-29T08:03:09.252Z,100.00
2019-04-29T08:05:39.993Z,100.00
2019-04-29T08:08:10.898Z,100.00
2019-04-29T08:10:55.637Z,100.00
2019-04-29T08:13:15.879Z,100.00
2019-04-29T08:15:46.725Z,100.00
2019-04-29T08:18:18.263Z,100.00
2019-04-29T08:20:49.113Z,100.00
2019-04-29T08:23:20.005Z,100.00
2019-04-29T08:25:51.174Z,100.00
2019-04-29T08:28:21.972Z,100.00
2019-04-29T08:30:52.764Z,100.00
2019-04-29T08:33:23.574Z,100.00
2019-04-29T08:35:54.390Z,100.00
2019-04-29T08:38:25.318Z,100.00
2019-04-29T08:40:56.299Z,100.00
2019-04-29T08:43:46.085Z,100.00
2019-04-29T08:46:20.868Z,100.00
2019-04-29T08:48:51.836Z,100.00
2019-04-29T08:51:22.609Z,100.00
2019-04-29T08:53:53.353Z,100.00
2019-04-29T08:56:24.163Z,100.00
2019-04-29T08:58:55.271Z,100.00
2019-04-29T09:01:29.152Z,100.00
2019-04-29T09:03:59.164Z,100.00
2019-04-29T09:06:32.688Z,100.00
2019-04-29T09:09:04.865Z,100.00
2019-04-29T09:11:35.627Z,100.00
2019-04-29T09:14:06.631Z,100.00
2019-04-29T09:16:37.442Z,100.00
2019-04-29T09:19:08.336Z,100.00
2019-04-29T09:21:41.522Z,100.00
2019-04-29T09:24:12.313Z,100.00
2019-04-29T09:26:48.365Z,100.00
2019-04-29T09:29:37.759Z,100.00
2019-04-29T09:32:08.459Z,100.00
2019-04-29T09:34:39.298Z,100.00
2019-04-29T09:37:10.028Z,100.00
2019-04-29T09:39:43.950Z,100.00
2019-04-29T09:42:33.573Z,100.00
2019-04-29T09:45:19.571Z,100.00
2019-04-29T09:47:47.927Z,100.00
2019-04-29T09:50:19.158Z,99.75
2019-04-29T09:52:49.908Z,99.57
2019-04-29T09:55:22.271Z,98.45
2019-04-29T09:57:53.149Z,98.50
2019-04-29T10:00:40.736Z,98.58
2019-04-29T10:03:18.989Z,98.33
2019-04-29T10:06:03.437Z,97.19
2019-04-29T10:08:34.412Z,96.73
2019-04-29T10:11:05.722Z,95.20
2019-04-29T10:13:36.378Z,94.90
2019-04-29T10:16:14.508Z,95.50
2019-04-29T10:18:53.558Z,95.64
2019-04-29T10:21:24.730Z,96.08
2019-04-29T10:23:55.598Z,96.81
2019-04-29T10:26:26.543Z,96.88
2019-04-29T10:29:01.508Z,97.29
2019-04-29T10:31:32.381Z,98.32
2019-04-29T10:34:03.614Z,98.27
2019-04-29T10:36:34.952Z,98.60
2019-04-29T10:39:27.841Z,98.78
2019-04-29T10:42:00.674Z,99.52
2019-04-29T10:44:37.580Z,99.89
2019-04-29T10:47:31.147Z,99.96
2019-04-29T10:50:10.631Z,100.00
2019-04-29T10:52:59.241Z,99.62
2019-04-29T10:55:31.706Z,99.15
2019-04-29T10:58:02.885Z,98.98
2019-04-29T11:01:38.673Z,98.88
2019-04-29T11:04:09.584Z,98.59
2019-04-29T11:06:40.473Z,98.48
2019-04-29T11:09:30.666Z,98.84
2019-04-29T11:12:04.000Z,99.04
2019-04-29T11:14:37.700Z,99.41
2019-04-29T11:17:16.001Z,99.80
2019-04-29T11:19:41.610Z,100.00
2019-04-29T11:22:14.901Z,100.00
2019-04-29T11:25:04.785Z,100.00
2019-04-29T11:27:42.740Z,100.00
2019-04-29T11:30:19.888Z,100.00
2019-04-29T11:32:55.407Z,100.00
2019-04-29T11:35:35.683Z,100.00
2019-04-29T11:38:08.051Z,100.00
2019-04-29T11:40:43.463Z,100.00
2019-04-29T11:43:15.641Z,100.00
2019-04-29T11:45:46.446Z,100.00
2019-04-29T11:48:17.429Z,100.00
2019-04-29T11:51:07.207Z,100.00
2019-04-29T11:53:41.287Z,100.00
2019-04-29T11:56:12.461Z,100.00
2019-04-29T11:59:02.070Z,100.00
2019-04-29T12:04:41.804Z,100.00
2019-04-29T12:07:11.037Z,100.00
2019-04-29T12:09:42.236Z,100.00
2019-04-29T12:12:14.647Z,100.00
2019-04-29T12:15:04.400Z,100.00
2019-04-29T12:17:51.208Z,100.00
2019-04-29T12:20:28.044Z,100.00
2019-04-29T12:22:58.927Z,100.00
2019-04-29T12:25:29.736Z,100.00
2019-04-29T12:28:02.035Z,100.00
2019-04-29T12:30:37.162Z,100.00
2019-04-29T12:33:13.976Z,100.00
2019-04-29T12:35:51.993Z,100.00
2019-04-29T12:38:48.862Z,99.64
2019-04-29T12:41:30.361Z,99.22
2019-04-29T12:44:18.654Z,98.86
2019-04-29T12:47:02.210Z,98.64
2019-04-29T12:49:33.172Z,99.23
2019-04-29T12:52:04.159Z,99.03
2019-04-29T12:54:35.162Z,99.19
2019-04-29T12:57:06.039Z,99.43
2019-04-29T12:59:37.257Z,99.25
2019-04-29T13:02:27.235Z,99.19
2019-04-29T13:05:04.433Z,99.32
2019-04-29T13:07:54.173Z,99.62
2019-04-29T13:10:31.315Z,99.48
2019-04-29T13:13:02.279Z,98.50
2019-04-29T13:15:54.393Z,97.78
2019-04-29T13:18:39.873Z,97.77
2019-04-29T13:21:10.873Z,97.16
2019-04-29T13:23:59.183Z,96.63
2019-04-29T13:26:27.345Z,96.04
2019-04-29T13:29:00.379Z,95.03
2019-04-29T13:31:20.259Z,95.08
2019-04-29T13:33:53.024Z,94.97
2019-04-29T13:36:25.892Z,94.51
2019-04-29T13:38:56.541Z,93.95
2019-04-29T13:41:27.432Z,93.41
2019-04-29T13:44:07.207Z,93.62
2019-04-29T13:46:54.080Z,93.66
2019-04-29T13:49:43.088Z,93.25
2019-04-29T13:52:15.021Z,93.65
2019-04-29T13:54:45.910Z,93.26
2019-04-29T13:57:16.864Z,93.62
2019-04-29T14:00:06.707Z,92.93
2019-04-29T14:02:41.459Z,92.48
2019-04-29T14:05:15.488Z,92.01
2019-04-29T14:07:48.745Z,92.01
2019-04-29T14:10:19.376Z,90.66
2019-04-29T14:15:23.005Z,88.95
2019-04-29T14:17:58.224Z,87.78
2019-04-29T14:18:53.618Z,90.69
2019-04-29T14:20:29.508Z,86.13
2019-04-29T14:23:01.328Z,87.82
2019-04-29T14:25:32.343Z,88.84
2019-04-29T14:28:03.407Z,90.04
2019-04-29T14:30:38.813Z,91.29
2019-04-29T14:33:08.740Z,92.25
2019-04-29T14:35:54.987Z,91.78
2019-04-29T14:38:26.035Z,91.71
2019-04-29T14:40:58.010Z,91.72
2019-04-29T14:43:50.538Z,92.73
2019-04-29T14:46:39.782Z,92.94
2019-04-29T14:49:20.267Z,93.42
2019-04-29T14:51:54.955Z,93.24
2019-04-29T14:54:29.408Z,92.79
2019-04-29T14:57:09.114Z,93.49
2019-04-29T14:59:44.317Z,94.14
2019-04-29T15:02:21.167Z,94.34
2019-04-29T15:04:56.247Z,94.97
2019-04-29T15:07:36.850Z,94.35
2019-04-29T15:10:11.058Z,94.89
2019-04-29T15:13:01.895Z,94.22
2019-04-29T15:15:45.948Z,94.90
2019-04-29T15:18:46.181Z,94.95
2019-04-29T15:21:32.969Z,95.25
2019-04-29T15:24:01.354Z,95.43
2019-04-29T15:26:33.728Z,95.83
2019-04-29T15:29:14.713Z,96.11
2019-04-29T15:31:48.785Z,96.37
2019-04-29T15:34:20.568Z,96.60
2019-04-29T15:36:52.543Z,96.97
2019-04-29T15:39:29.192Z,97.02
2019-04-29T15:42:08.878Z,97.19
2019-04-29T15:44:40.220Z,97.64
2019-04-29T15:47:18.342Z,97.40
2019-04-29T15:49:50.114Z,96.94
2019-04-29T15:52:25.820Z,96.98
2019-04-29T15:54:57.603Z,97.15
2019-04-29T15:57:28.469Z,97.69
2019-04-29T16:00:20.165Z,98.50
2019-04-29T16:02:35.808Z,98.89
2019-04-29T16:05:35.669Z,99.15
2019-04-29T16:08:29.542Z,99.38
2019-04-29T16:11:29.395Z,100.00
2019-04-29T16:14:09.407Z,100.00
2019-04-29T16:16:34.734Z,100.00
2019-04-29T16:19:10.212Z,100.00
2019-04-29T16:21:45.884Z,100.00
2019-04-29T16:24:26.388Z,100.00
2019-04-29T16:26:53.701Z,100.00
2019-04-29T16:29:25.872Z,100.00
2019-04-29T16:32:02.330Z,100.00
2019-04-29T16:34:31.106Z,100.00
2019-04-29T16:37:05.849Z,100.00
2019-04-29T16:39:45.223Z,100.00
2019-04-29T16:42:36.869Z,100.00
2019-04-29T16:45:14.409Z,100.00
2019-04-29T16:47:51.786Z,100.00
2019-04-29T16:50:32.326Z,100.00
2019-04-29T16:53:06.557Z,100.00
2019-04-29T16:55:42.966Z,100.00
2019-04-29T16:58:22.586Z,100.00
2019-04-29T17:00:59.028Z,100.00
2019-04-29T17:03:34.866Z,100.00
2019-04-29T17:06:07.567Z,100.00
2019-04-29T17:09:05.441Z,100.00
2019-04-29T17:11:37.650Z,100.00
2019-04-29T17:14:12.485Z,100.00
2019-04-29T17:16:43.695Z,100.00
2019-04-29T17:19:21.528Z,100.00
2019-04-29T17:21:54.053Z,100.00
2019-04-29T17:24:28.519Z,100.00
2019-04-29T17:27:08.512Z,100.00
2019-04-29T17:30:03.755Z,100.00
2019-04-29T17:32:48.468Z,100.00
2019-04-29T17:38:03.750Z,100.00
2019-04-29T17:40:36.539Z,100.00
2019-04-29T17:43:19.102Z,100.00
2019-04-29T17:46:12.174Z,100.00
2019-04-29T17:49:04.727Z,100.00
2019-04-29T17:51:38.579Z,100.00
2019-04-29T17:54:12.615Z,100.00
2019-04-29T17:57:25.598Z,100.00
2019-04-29T17:59:51.613Z,100.00
2019-04-29T18:02:39.554Z,100.00
2019-04-29T18:05:52.186Z,100.00
2019-04-29T18:08:49.523Z,100.00
2019-04-29T18:11:24.971Z,100.00
2019-04-29T18:13:58.238Z,100.00
2019-04-29T18:16:39.432Z,100.00
2019-04-29T18:19:23.390Z,100.00
2019-04-29T18:22:18.478Z,100.00
2019-04-29T18:24:58.445Z,100.00
2019-04-29T18:27:31.168Z,100.00
2019-04-29T18:30:06.979Z,100.00
2019-04-29T18:32:47.817Z,100.00
2019-04-29T18:35:21.273Z,100.00
2019-04-29T18:37:55.733Z,100.00
2019-04-29T18:40:41.930Z,100.00
2019-04-29T18:43:12.108Z,100.00
2019-04-29T18:45:55.789Z,100.00
2019-04-29T18:48:26.896Z,100.00
2019-04-29T18:50:57.440Z,100.00
2019-04-29T18:53:31.953Z,100.00
2019-04-29T18:56:14.773Z,100.00
2019-04-29T18:58:55.939Z,100.00
2019-04-29T19:01:34.898Z,100.00
2019-04-29T19:04:22.530Z,100.00
2019-04-29T19:07:02.042Z,100.00
2019-04-29T19:09:35.894Z,100.00
2019-04-29T19:12:13.953Z,100.00
2019-04-29T19:14:51.877Z,100.00
2019-04-29T19:17:30.738Z,100.00
2019-04-29T19:20:02.002Z,100.00
2019-04-29T19:22:36.109Z,100.00
2019-04-29T19:25:15.301Z,100.00
2019-04-29T19:27:48.159Z,100.00
2019-04-29T19:30:29.270Z,100.00
2019-04-29T19:33:09.653Z,100.00
2019-04-29T19:35:45.233Z,100.00
2019-04-29T19:38:21.453Z,100.00
2019-04-29T19:40:53.560Z,100.00
2019-04-29T19:43:27.891Z,100.00
2019-04-29T19:46:21.513Z,100.00
2019-04-29T19:48:41.472Z,100.00
2019-04-29T19:51:17.871Z,100.00
2019-04-29T19:53:50.201Z,100.00
2019-04-29T19:56:26.958Z,100.00
2019-04-29T19:59:10.334Z,100.00
2019-04-29T20:01:36.645Z,100.00
2019-04-29T20:04:22.427Z,100.00
2019-04-29T20:06:58.621Z,100.00
2019-04-29T20:09:31.170Z,100.00
2019-04-29T20:12:26.055Z,100.00
2019-04-29T20:15:08.744Z,100.00
2019-04-29T20:18:00.558Z,100.00
2019-04-29T20:20:38.686Z,100.00
2019-04-29T20:23:20.402Z,100.00
2019-04-29T20:26:05.518Z,100.00
2019-04-29T20:28:31.963Z,100.00
2019-04-29T20:31:17.910Z,100.00
2019-04-29T20:33:46.911Z,100.00
2019-04-29T20:36:33.249Z,100.00
2019-04-29T20:38:51.642Z,100.00
2019-04-29T20:41:40.212Z,100.00
2019-04-29T20:44:00.935Z,100.00
2019-04-29T20:49:16.130Z,100.00
2019-04-29T20:51:55.980Z,100.00
2019-04-29T20:54:35.446Z,100.00
2019-04-29T20:57:17.429Z,100.00
2019-04-29T20:59:41.873Z,100.00
2019-04-29T21:02:13.169Z,100.00
2019-04-29T21:04:47.400Z,100.00
2019-04-29T21:07:23.624Z,100.00
2019-04-29T21:09:50.628Z,100.00
2019-04-29T21:12:40.376Z,100.00
2019-04-29T21:15:18.048Z,100.00
2019-04-29T21:17:48.953Z,100.00
2019-04-29T21:20:19.780Z,100.00
2019-04-29T21:22:52.475Z,100.00
2019-04-29T21:25:24.703Z,100.00
2019-04-29T21:27:58.252Z,100.00
2019-04-29T21:30:35.322Z,100.00
2019-04-29T21:33:01.312Z,100.00
2019-04-29T21:35:54.437Z,100.00
2019-04-29T21:38:42.237Z,100.00
2019-04-29T21:41:20.315Z,100.00
2019-04-29T21:43:53.531Z,100.00
2019-04-29T21:46:25.684Z,100.00
2019-04-29T21:48:57.873Z,100.00
2019-04-29T21:51:28.773Z,100.00
2019-04-29T21:53:59.629Z,100.00
2019-04-29T21:56:30.384Z,100.00
2019-04-29T21:59:02.689Z,100.00
2019-04-29T22:01:37.469Z,100.00
2019-04-29T22:04:07.074Z,100.00
2019-04-29T22:06:37.954Z,100.00
2019-04-29T22:09:08.804Z,100.00
2019-04-29T22:11:43.564Z,100.00
2019-04-29T22:14:14.065Z,100.00
2019-04-29T22:16:49.160Z,100.00
2019-04-29T22:19:18.115Z,100.00
2019-04-29T22:21:52.695Z,100.00
2019-04-29T22:24:21.725Z,100.00
2019-04-29T22:26:58.156Z,100.00
2019-04-29T22:29:26.769Z,100.00
2019-04-29T22:31:57.761Z,100.00
2019-04-29T22:34:28.439Z,100.00
2019-04-29T22:37:01.094Z,100.00
2019-04-29T22:39:31.739Z,100.00
2019-04-29T22:42:14.077Z,100.00
2019-04-29T22:44:45.709Z,100.00
2019-04-29T22:47:23.247Z,100.00
2019-04-29T22:49:49.438Z,100.00
2019-04-29T22:52:20.662Z,100.00
2019-04-29T22:54:52.841Z,100.00
2019-04-29T22:57:30.119Z,100.00
2019-04-29T22:59:57.311Z,100.00
2019-04-29T23:02:28.589Z,100.00
2019-04-29T23:04:59.510Z,100.00
2019-04-29T23:07:30.233Z,100.00
2019-04-29T23:10:00.952Z,100.00
2019-04-29T23:12:31.832Z,100.00
2019-04-29T23:15:02.703Z,100.00
2019-04-29T23:17:35.095Z,100.00
2019-04-29T23:20:28.830Z,100.00
2019-04-29T23:23:05.567Z,100.00
2019-04-29T23:25:40.723Z,100.00
2019-04-29T23:28:11.608Z,100.00
2019-04-29T23:30:42.373Z,100.00
2019-04-29T23:33:17.080Z,100.00
2019-04-29T23:35:45.722Z,100.00
2019-04-29T23:38:16.382Z,100.00
2019-04-29T23:40:49.682Z,100.00
2019-04-29T23:43:24.044Z,100.00
2019-04-29T23:45:57.007Z,100.00
2019-04-29T23:48:26.560Z,100.00
2019-04-29T23:50:58.365Z,100.00
2019-04-29T23:53:29.924Z,100.00
2019-04-29T23:56:05.557Z,100.00
2019-04-29T23:58:52.083Z,100.00
